Latest Coastal Weather Observations for Robe Airport

IDV60701

Issued at 6:05 pm EDT Monday 24 November 2014 (issued every 10 minutes, with the page automatically refreshed every 10 minutes)

About coastal observations | Map of coastal stations | Coastal observations for VIC | Marine services | Other Formats
Station Details ID: 026105 Name: ROBE AIRFIELD Lat: -37.18 Lon: 139.81 Height: 3.0 m
Data from the previous 72 hours. | See also: Recent months at Robe Airport
Date/Time
EDT
Temp

°C
Wind Pressure Rain
since 9am
mm
Weather Cloud Vis
km
Sea
Height
m
Swell
Dir
 
Speed
knots
Gust
knots
hPa Trend Height
m
Period
s
Dir
24/06:00pm 17.4 WSW 12 21 1013.9 - 0.0 - - - - - - -
24/05:30pm 17.5 WSW 13 22 1013.7 - 0.0 - - - - - - -
24/05:06pm 17.4 WSW 15 26 1013.4 - 0.0 - - - - - - -
24/05:00pm 17.7 WSW 13 21 1013.4 - 0.0 - - - - - - -
24/04:30pm 18.1 WSW 14 21 1013.3 - 0.0 - - - - - - -
24/04:00pm 18.0 WSW 13 24 1013.1 - 0.0 - - - - - - -
24/03:30pm 18.5 WSW 12 20 1012.9 - 0.0 - - - - - - -
24/03:00pm 18.1 WSW 13 20 1012.9 - 0.0 - - - - - - -
24/02:30pm 18.5 SW 14 22 1012.7 - 0.0 - - - - - - -
24/02:00pm 18.5 WSW 13 21 1012.6 - 0.0 - - - - - - -
24/01:30pm 18.6 WSW 14 23 1012.3 - 0.0 - - - - - - -
24/01:00pm 17.6 SW 15 23 1012.0 - 0.0 - - - - - - -
24/12:39pm 17.9 SW 15 26 1011.9 - 0.0 - - - - - - -
24/12:30pm 17.5 WSW 13 21 1011.8 - 0.0 - - - - - - -
24/12:00pm 16.6 WSW 11 18 1011.6 - 0.0 - - - - - - -
24/11:30am 15.5 WSW 9 17 1011.6 - 0.0 - - - - - - -
24/11:00am 17.1 WSW 10 20 1011.2 - 0.0 - - - - - - -
24/10:30am 18.8 SW 8 12 1010.9 - 0.0 - - - - - - -
24/10:00am 18.5 SW 7 11 1010.7 - 0.0 - - - - - - -
24/09:30am 18.9 SSW 8 11 1010.3 - 0.0 - - - - - - -
24/09:00am 17.1 SSW 8 10 1010.2 - 0.0 - - - - - - -
24/08:30am 16.6 S 5 7 1010.5 - 0.0 - - - - - - -
24/08:00am 16.3 S 6 9 1009.9 - 0.0 - - - - - - -
24/07:30am 15.6 SSW 6 8 1009.5 - 0.0 - - - - - - -
24/07:00am 15.1 S 4 6 1009.8 - 0.0 - - - - - - -
24/06:30am 14.5 SSW 5 5 1009.6 - 0.0 - - - - - - -
24/06:00am 14.1 SSW 3 4 1009.4 - 0.0 - - - - - - -
24/05:30am 13.8 S 5 5 1009.2 - 0.0 - - - - - - -
24/05:00am 14.3 SSE 5 7 1008.6 - 0.0 - - - - - - -
24/04:30am 14.8 SSW 5 8 1009.4 - 0.0 - - - - - - -
24/04:00am 12.9 S 4 6 1009.0 - 0.0 - - - - - - -
24/03:30am 12.2 SSW 4 5 1009.0 - 0.0 - - - - - - -
24/03:00am 12.6 S 5 7 1009.1 - 0.0 - - - - - - -
24/02:30am 12.4 S 4 5 1009.2 - 0.0 - - - - - - -
24/02:00am 13.0 S 3 4 1009.6 - 0.0 - - - - - - -
24/01:30am 13.4 ESE 4 6 1008.9 - 0.0 - - - - - - -
24/01:00am 13.3 ESE 4 5 1010.0 - 0.0 - - - - - - -
24/12:30am 14.3 ESE 3 5 1011.0 - 0.0 - - - - - - -
24/12:00am 15.1 ESE 4 5 1011.1 - 0.0 - - - - - - -
 
Date/Time
EDT
Temp

°C
Wind Pressure Rain
since 9am
mm
Weather Cloud Vis
km
Sea
Height
m
Swell
Dir
 
Speed
knots
Gust
knots
hPa Trend Height
m
Period
s
Dir
23/11:30pm 15.5 S 5 7 1011.4 - 0.0 - - - - - - -
23/11:00pm 14.4 SSE 4 5 1011.7 - 0.0 - - - - - - -
23/10:30pm 14.4 CALM 0 0 1012.2 - 0.0 - - - - - - -
23/10:00pm 14.6 SE 1 3 1012.0 - 0.0 - - - - - - -
23/09:30pm 15.5 SSE 4 6 1011.6 - 0.0 - - - - - - -
23/09:00pm 16.3 SSW 8 10 1011.3 - 0.0 - - - - - - -
23/08:30pm 16.4 S 3 4 1011.4 - 0.0 - - - - - - -
23/08:00pm 17.2 S 2 3 1011.6 - 0.0 - - - - - - -
23/07:30pm 17.4 S 3 4 1011.6 - 0.0 - - - - - - -
23/07:00pm 17.6 SSW 3 4 1011.6 - 0.0 - - - - - - -
23/06:30pm 17.9 WSW 5 8 1012.4 - 0.0 - - - - - - -
23/06:00pm 18.4 WSW 7 10 1011.9 - 0.0 - - - - - - -
23/05:30pm 19.4 WSW 5 7 1011.2 - 0.0 - - - - - - -
23/05:00pm 19.6 SW 5 7 1011.3 - 0.0 - - - - - - -
23/04:30pm 20.5 WNW 5 9 1011.5 - 0.0 - - - - - - -
23/04:00pm 20.0 NW 10 14 1012.3 - 0.0 - - - - - - -
23/03:30pm 20.2 NW 10 14 1012.8 - 0.0 - - - - - - -
23/03:00pm 20.6 NW 10 15 1012.9 - 0.0 - - - - - - -
23/02:30pm 20.8 NW 11 14 1012.9 - 0.0 - - - - - - -
23/02:00pm 20.9 WNW 9 12 1012.7 - 0.0 - - - - - - -
23/01:30pm 20.8 WNW 8 12 1012.6 - 0.0 - - - - - - -
23/01:00pm 20.9 NW 7 11 1012.4 - 0.0 - - - - - - -
23/12:30pm 20.0 NW 8 12 1012.9 - 0.0 - - - - - - -
23/12:00pm 20.0 WNW 7 11 1012.6 - 0.0 - - - - - - -
23/11:30am 19.9 WNW 6 10 1012.5 - 0.0 - - - - - - -
23/11:00am 19.8 WNW 7 11 1012.9 - 0.0 - - - - - - -
23/10:30am 18.9 NW 8 11 1013.1 - 0.0 - - - - - - -
23/10:00am 18.6 NW 7 10 1013.0 - 0.0 - - - - - - -
23/09:30am 18.0 WNW 7 10 1013.0 - 0.0 - - - - - - -
23/09:00am 17.5 WNW 6 8 1013.0 - 0.0 - - - - - - -
23/08:30am 16.7 WNW 5 7 1012.9 - 0.0 - - - - - - -
23/08:00am 15.0 WNW 3 5 1012.7 - 0.0 - - - - - - -
23/07:30am 11.6 CALM 0 0 1012.2 - 0.0 - - - - - - -
23/07:00am 7.7 W 2 2 1012.1 - 0.0 - - - - - - -
23/06:30am 7.7 CALM 0 0 1011.9 - 0.0 - - - - - - -
23/06:00am 6.5 CALM 0 0 1011.7 - 0.0 - - - - - - -
23/05:30am 8.0 CALM 0 0 1011.5 - 0.0 - - - - - - -
23/05:00am 7.0 CALM 0 0 1011.4 - 0.0 - - - - - - -
23/04:30am 8.6 CALM 0 0 1011.3 - 0.0 - - - - - - -
23/04:00am 8.0 CALM 0 0 1011.3 - 0.0 - - - - - - -
23/03:30am 9.4 W 2 2 1011.2 - 0.0 - - - - - - -
23/03:00am 10.1 WSW 2 4 1011.4 - 0.0 - - - - - - -
23/02:30am 10.1 CALM 0 1 1011.4 - 0.0 - - - - - - -
23/02:00am 13.7 WSW 3 5 1011.4 - 0.0 - - - - - - -
23/01:30am 14.1 W 3 5 1011.6 - 0.0 - - - - - - -
23/01:00am 13.8 W 2 3 1011.9 - 0.0 - - - - - - -
23/12:30am 13.9 W 3 4 1011.9 - 0.0 - - - - - - -
23/12:00am 14.1 W 3 4 1011.8 - 0.0 - - - - - - -
 
Date/Time
EDT
Temp

°C
Wind Pressure Rain
since 9am
mm
Weather Cloud Vis
km
Sea
Height
m
Swell
Dir
 
Speed
knots
Gust
knots
hPa Trend Height
m
Period
s
Dir
22/11:30pm 13.8 WSW 3 4 1011.8 - 0.0 - - - - - - -
22/11:00pm 13.9 WSW 3 4 1011.5 - 0.0 - - - - - - -
22/10:30pm 14.4 WSW 2 3 1011.3 - 0.0 - - - - - - -
22/10:00pm 15.0 SW 3 5 1010.8 - 0.0 - - - - - - -
22/09:30pm 15.5 SW 4 7 1010.4 - 0.0 - - - - - - -
22/09:00pm 15.7 WSW 3 5 1010.2 - 0.0 - - - - - - -
22/08:30pm 16.3 SW 5 9 1009.5 - 0.0 - - - - - - -
22/08:00pm 17.3 SW 8 11 1009.0 - 0.0 - - - - - - -
22/07:30pm 18.5 SW 7 12 1008.4 - 0.0 - - - - - - -
22/07:00pm 18.6 SW 10 14 1008.0 - 0.0 - - - - - - -
22/06:30pm 19.0 SW 10 16 1007.8 - 0.0 - - - - - - -
22/06:00pm 19.2 SW 13 18 1007.5 - 0.0 - - - - - - -
22/05:30pm 19.8 SW 13 19 1007.1 - 0.0 - - - - - - -
22/05:00pm 20.2 WSW 12 17 1006.8 - 0.0 - - - - - - -
22/04:30pm 21.7 W 12 17 1006.7 - 0.0 - - - - - - -
22/04:00pm 22.4 NW 16 22 1006.8 - 0.0 - - - - - - -
22/03:30pm 23.5 NNW 13 17 1006.4 - 0.0 - - - - - - -
22/03:00pm 22.9 NW 17 21 1006.2 - 0.0 - - - - - - -
22/02:30pm 23.1 NW 15 20 1006.1 - 0.0 - - - - - - -
22/02:00pm 22.9 NW 16 21 1006.1 - 0.0 - - - - - - -
22/01:30pm 23.1 NNW 19 25 1006.1 - 0.0 - - - - - - -
22/01:00pm 24.2 NNW 18 25 1006.3 - 0.0 - - - - - - -
22/12:30pm 24.9 NNW 20 28 1006.3 - 0.0 - - - - - - -
22/12:00pm 25.7 NNW 20 30 1006.4 - 0.0 - - - - - - -
22/11:30am 24.8 N 23 29 1006.2 - 0.0 - - - - - - -
22/11:00am 25.4 N 22 31 1005.9 - 0.0 - - - - - - -
22/10:38am 25.2 N 20 31 1006.0 - 0.0 - - - - - - -
22/10:30am 24.7 N 20 26 1006.0 - 0.0 - - - - - - -
22/10:07am 23.3 N 16 27 1006.2 - 0.0 - - - - - - -
22/10:00am 22.6 N 15 24 1006.3 - 0.0 - - - - - - -
22/09:30am 20.1 NNE 14 18 1006.5 - 0.8 - - - - - - -
22/09:00am 17.0 NNE 9 12 1006.8 - 0.8 - - - - - - -
22/08:30am 15.3 NNE 8 12 1006.8 - 0.8 - - - - - - -
22/08:00am 14.3 NE 9 14 1007.2 - 0.8 - - - - - - -
22/07:30am 13.4 NE 10 12 1007.5 - 0.8 - - - - - - -
22/07:08am 13.8 ENE 3 6 1009.0 - 0.6 - - - - - - -
22/07:00am 13.8 ENE 6 9 1007.0 - 0.6 - - - - - - -
22/06:30am 13.5 E 6 9 1006.6 - 0.6 - - - - - - -
22/06:00am 13.4 ENE 8 12 1006.6 - 0.6 - - - - - - -
22/05:30am 13.2 ESE 7 9 1007.2 - 0.6 - - - - - - -
22/05:00am 13.6 SSE 5 7 1008.2 - 0.6 - - - - - - -
22/04:30am 13.4 ESE 3 4 1008.6 - 0.6 - - - - - - -
22/04:00am 13.4 ESE 3 4 1008.6 - 0.6 - - - - - - -
22/03:30am 14.1 SE 5 6 1008.0 - 0.6 Recent precip. - - - - - -
22/03:00am 13.9 SSE 6 9 1008.1 - 0.6 - - - - - - -
22/02:30am 14.6 SSW 5 11 1009.6 - 0.4 - - - - - - -
22/02:12am 14.6 SW 15 27 1009.9 - 0.0 - - - - - - -
22/02:11am 14.3 SW 12 18 1009.6 - 0.0 - - - - - - -
22/02:00am 14.3 NE 6 9 1007.5 - 0.0 - - - - - - -
22/01:30am 13.8 NNE 8 12 1007.9 - 0.0 - - - - - - -
22/01:00am 13.9 NE 10 14 1007.8 - 0.0 - - - - - - -
22/12:30am 14.0 NE 8 10 1009.0 - 0.0 - - - - - - -
22/12:00am 12.6 NNE 5 7 1009.7 - 0.0 - - - - - - -
 
Date/Time
EDT
Temp

°C
Wind Pressure Rain
since 9am
mm
Weather Cloud Vis
km
Sea
Height
m
Swell
Dir
 
Speed
knots
Gust
knots
hPa Trend Height
m
Period
s
Dir
21/11:30pm 13.0 NE 5 7 1010.4 - 0.0 - - - - - - -
21/11:00pm 13.1 NE 5 7 1010.8 - 0.0 - - - - - - -
21/10:30pm 13.0 N 2 5 1011.3 - 0.0 - - - - - - -
21/10:00pm 13.6 CALM 0 0 1011.2 - 0.0 - - - - - - -
21/09:30pm 14.3 CALM 0 0 1011.2 - 0.0 - - - - - - -
21/09:00pm 15.0 CALM 0 1 1011.2 - 0.0 - - - - - - -
21/08:30pm 15.7 NNW 3 4 1011.2 - 0.0 - - - - - - -
21/08:00pm 16.3 NNW 4 5 1011.2 - 0.0 - - - - - - -
21/07:30pm 17.0 NW 3 5 1011.0 - 0.0 - - - - - - -
21/07:00pm 17.4 NNW 4 7 1011.0 - 0.0 - - - - - - -

Other Formats:

Comma delimited format used in spreadsheet applications
http://www.bom.gov.au/fwo/IDV60701/IDV60701.95816.axf

JavaScript Object Notation format (JSON) in row-major order
http://www.bom.gov.au/fwo/IDV60701/IDV60701.95816.json